sensor_id;sensor_type;location;lat;lon;timestamp;P1;durP1;ratioP1;P2;durP2;ratioP2
70705;SDS011;59320;52.316;10.870;2023-05-07T00:01:42;17.45;;;12.95;;
70705;SDS011;59320;52.316;10.870;2023-05-07T00:04:09;20.45;;;13.98;;
70705;SDS011;59320;52.316;10.870;2023-05-07T00:06:37;18.80;;;13.32;;
70705;SDS011;59320;52.316;10.870;2023-05-07T00:09:05;14.88;;;12.07;;
70705;SDS011;59320;52.316;10.870;2023-05-07T00:11:32;18.17;;;12.13;;
70705;SDS011;59320;52.316;10.870;2023-05-07T00:14:00;16.40;;;12.23;;
70705;SDS011;59320;52.316;10.870;2023-05-07T00:16:27;14.82;;;12.00;;
70705;SDS011;59320;52.316;10.870;2023-05-07T00:18:54;14.65;;;11.82;;
70705;SDS011;59320;52.316;10.870;2023-05-07T00:21:21;16.05;;;11.45;;
70705;SDS011;59320;52.316;10.870;2023-05-07T00:23:53;14.98;;;10.88;;
70705;SDS011;59320;52.316;10.870;2023-05-07T00:26:20;12.20;;;9.77;;
70705;SDS011;59320;52.316;10.870;2023-05-07T00:28:49;12.73;;;9.77;;
70705;SDS011;59320;52.316;10.870;2023-05-07T00:31:17;10.25;;;8.45;;
70705;SDS011;59320;52.316;10.870;2023-05-07T00:33:44;10.10;;;7.60;;
70705;SDS011;59320;52.316;10.870;2023-05-07T00:36:11;8.57;;;7.40;;
70705;SDS011;59320;52.316;10.870;2023-05-07T00:38:38;8.95;;;7.35;;
70705;SDS011;59320;52.316;10.870;2023-05-07T00:41:06;9.00;;;7.40;;
70705;SDS011;59320;52.316;10.870;2023-05-07T00:43:33;10.30;;;7.63;;
70705;SDS011;59320;52.316;10.870;2023-05-07T00:46:00;9.85;;;7.65;;
70705;SDS011;59320;52.316;10.870;2023-05-07T00:48:28;10.85;;;7.32;;
70705;SDS011;59320;52.316;10.870;2023-05-07T00:50:55;11.23;;;7.97;;
70705;SDS011;59320;52.316;10.870;2023-05-07T00:53:23;9.63;;;7.47;;
70705;SDS011;59320;52.316;10.870;2023-05-07T00:55:50;11.25;;;8.10;;
70705;SDS011;59320;52.316;10.870;2023-05-07T00:58:19;10.73;;;7.78;;
70705;SDS011;59320;52.316;10.870;2023-05-07T01:00:47;10.90;;;7.43;;
70705;SDS011;59320;52.316;10.870;2023-05-07T01:03:15;9.40;;;7.45;;
70705;SDS011;59320;52.316;10.870;2023-05-07T01:05:42;11.30;;;8.50;;
70705;SDS011;59320;52.316;10.870;2023-05-07T01:08:11;10.50;;;7.55;;
70705;SDS011;59320;52.316;10.870;2023-05-07T01:10:39;12.40;;;9.05;;
70705;SDS011;59320;52.316;10.870;2023-05-07T01:13:08;11.18;;;8.25;;
70705;SDS011;59320;52.316;10.870;2023-05-07T01:15:37;11.18;;;8.60;;
70705;SDS011;59320;52.316;10.870;2023-05-07T01:18:05;11.50;;;8.98;;
70705;SDS011;59320;52.316;10.870;2023-05-07T01:20:34;13.07;;;8.82;;
70705;SDS011;59320;52.316;10.870;2023-05-07T01:23:03;11.77;;;8.70;;
70705;SDS011;59320;52.316;10.870;2023-05-07T01:25:30;12.20;;;9.18;;
70705;SDS011;59320;52.316;10.870;2023-05-07T01:27:59;12.23;;;8.63;;
70705;SDS011;59320;52.316;10.870;2023-05-07T01:30:30;12.95;;;9.82;;
70705;SDS011;59320;52.316;10.870;2023-05-07T01:33:01;14.07;;;9.90;;
70705;SDS011;59320;52.316;10.870;2023-05-07T01:35:32;13.10;;;9.48;;
70705;SDS011;59320;52.316;10.870;2023-05-07T01:38:05;13.13;;;9.93;;
70705;SDS011;59320;52.316;10.870;2023-05-07T01:40:33;11.85;;;9.48;;
70705;SDS011;59320;52.316;10.870;2023-05-07T01:43:01;13.77;;;10.18;;
70705;SDS011;59320;52.316;10.870;2023-05-07T01:45:29;11.23;;;8.93;;
70705;SDS011;59320;52.316;10.870;2023-05-07T01:47:57;13.70;;;9.52;;
70705;SDS011;59320;52.316;10.870;2023-05-07T01:50:25;13.30;;;9.88;;
70705;SDS011;59320;52.316;10.870;2023-05-07T01:52:52;13.75;;;10.65;;
70705;SDS011;59320;52.316;10.870;2023-05-07T01:55:21;13.07;;;9.43;;
70705;SDS011;59320;52.316;10.870;2023-05-07T01:57:48;10.77;;;9.65;;
70705;SDS011;59320;52.316;10.870;2023-05-07T02:00:15;13.50;;;10.50;;
70705;SDS011;59320;52.316;10.870;2023-05-07T02:02:44;14.23;;;10.70;;
70705;SDS011;59320;52.316;10.870;2023-05-07T02:05:24;12.90;;;9.48;;
70705;SDS011;59320;52.316;10.870;2023-05-07T02:07:58;12.60;;;10.52;;
70705;SDS011;59320;52.316;10.870;2023-05-07T02:10:28;15.93;;;10.50;;
70705;SDS011;59320;52.316;10.870;2023-05-07T02:12:55;12.02;;;10.20;;
70705;SDS011;59320;52.316;10.870;2023-05-07T02:15:22;14.38;;;9.77;;
70705;SDS011;59320;52.316;10.870;2023-05-07T02:18:00;11.27;;;9.68;;
70705;SDS011;59320;52.316;10.870;2023-05-07T02:20:29;10.77;;;9.13;;
70705;SDS011;59320;52.316;10.870;2023-05-07T02:22:56;10.98;;;8.98;;
70705;SDS011;59320;52.316;10.870;2023-05-07T02:25:25;11.85;;;8.98;;
70705;SDS011;59320;52.316;10.870;2023-05-07T02:27:53;11.50;;;9.20;;
70705;SDS011;59320;52.316;10.870;2023-05-07T02:30:25;11.20;;;9.27;;
70705;SDS011;59320;52.316;10.870;2023-05-07T02:32:55;12.15;;;9.55;;
70705;SDS011;59320;52.316;10.870;2023-05-07T02:35:23;10.80;;;8.60;;
70705;SDS011;59320;52.316;10.870;2023-05-07T02:37:51;11.63;;;9.05;;
70705;SDS011;59320;52.316;10.870;2023-05-07T02:40:18;10.77;;;8.93;;
70705;SDS011;59320;52.316;10.870;2023-05-07T02:42:45;10.38;;;8.85;;
70705;SDS011;59320;52.316;10.870;2023-05-07T02:45:14;10.52;;;9.13;;
70705;SDS011;59320;52.316;10.870;2023-05-07T02:47:42;10.43;;;8.90;;
70705;SDS011;59320;52.316;10.870;2023-05-07T02:50:10;10.93;;;9.15;;
70705;SDS011;59320;52.316;10.870;2023-05-07T02:52:38;9.88;;;8.38;;
70705;SDS011;59320;52.316;10.870;2023-05-07T02:55:05;10.05;;;8.93;;
70705;SDS011;59320;52.316;10.870;2023-05-07T02:57:33;10.65;;;8.95;;
70705;SDS011;59320;52.316;10.870;2023-05-07T03:00:09;9.73;;;8.60;;
70705;SDS011;59320;52.316;10.870;2023-05-07T03:02:42;11.25;;;9.48;;
70705;SDS011;59320;52.316;10.870;2023-05-07T03:05:09;10.23;;;9.10;;
70705;SDS011;59320;52.316;10.870;2023-05-07T03:07:37;10.93;;;9.48;;
70705;SDS011;59320;52.316;10.870;2023-05-07T03:10:04;10.15;;;9.05;;
70705;SDS011;59320;52.316;10.870;2023-05-07T03:12:32;11.63;;;9.57;;
70705;SDS011;59320;52.316;10.870;2023-05-07T03:14:59;11.82;;;9.90;;
70705;SDS011;59320;52.316;10.870;2023-05-07T03:17:26;11.02;;;9.48;;
70705;SDS011;59320;52.316;10.870;2023-05-07T03:19:54;11.73;;;9.82;;
70705;SDS011;59320;52.316;10.870;2023-05-07T03:22:21;11.20;;;9.73;;
70705;SDS011;59320;52.316;10.870;2023-05-07T03:24:49;10.65;;;9.55;;
70705;SDS011;59320;52.316;10.870;2023-05-07T03:27:16;10.85;;;9.65;;
70705;SDS011;59320;52.316;10.870;2023-05-07T03:29:43;12.20;;;9.57;;
70705;SDS011;59320;52.316;10.870;2023-05-07T03:32:10;11.25;;;9.55;;
70705;SDS011;59320;52.316;10.870;2023-05-07T03:34:37;10.95;;;9.40;;
70705;SDS011;59320;52.316;10.870;2023-05-07T03:37:06;12.13;;;9.30;;
70705;SDS011;59320;52.316;10.870;2023-05-07T03:39:34;11.25;;;9.50;;
70705;SDS011;59320;52.316;10.870;2023-05-07T03:42:01;10.45;;;9.10;;
70705;SDS011;59320;52.316;10.870;2023-05-07T03:44:31;9.88;;;8.73;;
70705;SDS011;59320;52.316;10.870;2023-05-07T03:46:59;10.15;;;8.82;;
70705;SDS011;59320;52.316;10.870;2023-05-07T03:49:26;9.30;;;8.30;;
70705;SDS011;59320;52.316;10.870;2023-05-07T03:51:53;9.55;;;8.52;;
70705;SDS011;59320;52.316;10.870;2023-05-07T03:54:22;10.95;;;7.85;;
70705;SDS011;59320;52.316;10.870;2023-05-07T03:56:49;8.15;;;7.32;;
70705;SDS011;59320;52.316;10.870;2023-05-07T03:59:16;9.23;;;8.18;;
70705;SDS011;59320;52.316;10.870;2023-05-07T04:01:46;9.10;;;8.18;;
70705;SDS011;59320;52.316;10.870;2023-05-07T04:04:16;10.07;;;7.93;;
70705;SDS011;59320;52.316;10.870;2023-05-07T04:06:43;9.48;;;8.48;;
70705;SDS011;59320;52.316;10.870;2023-05-07T04:09:10;10.05;;;8.65;;
70705;SDS011;59320;52.316;10.870;2023-05-07T04:11:39;9.63;;;8.63;;
70705;SDS011;59320;52.316;10.870;2023-05-07T04:14:08;10.88;;;9.13;;
70705;SDS011;59320;52.316;10.870;2023-05-07T04:16:36;11.07;;;8.90;;
70705;SDS011;59320;52.316;10.870;2023-05-07T04:19:03;9.60;;;8.63;;
70705;SDS011;59320;52.316;10.870;2023-05-07T04:21:34;10.07;;;8.98;;
70705;SDS011;59320;52.316;10.870;2023-05-07T04:24:02;9.40;;;8.40;;
70705;SDS011;59320;52.316;10.870;2023-05-07T04:26:29;10.55;;;8.93;;
70705;SDS011;59320;52.316;10.870;2023-05-07T04:28:58;11.52;;;8.75;;
70705;SDS011;59320;52.316;10.870;2023-05-07T04:31:30;9.52;;;8.20;;
70705;SDS011;59320;52.316;10.870;2023-05-07T04:33:58;10.40;;;8.82;;
70705;SDS011;59320;52.316;10.870;2023-05-07T04:36:25;9.25;;;8.30;;
70705;SDS011;59320;52.316;10.870;2023-05-07T04:39:02;10.35;;;9.07;;
70705;SDS011;59320;52.316;10.870;2023-05-07T04:41:29;9.13;;;7.90;;
70705;SDS011;59320;52.316;10.870;2023-05-07T04:43:57;9.18;;;7.88;;
70705;SDS011;59320;52.316;10.870;2023-05-07T04:46:26;8.98;;;7.78;;
70705;SDS011;59320;52.316;10.870;2023-05-07T04:48:55;9.43;;;8.10;;
70705;SDS011;59320;52.316;10.870;2023-05-07T04:51:23;10.98;;;9.13;;
70705;SDS011;59320;52.316;10.870;2023-05-07T04:53:50;9.63;;;8.60;;
70705;SDS011;59320;52.316;10.870;2023-05-07T04:56:17;9.93;;;8.82;;
70705;SDS011;59320;52.316;10.870;2023-05-07T04:58:46;9.50;;;8.50;;
70705;SDS011;59320;52.316;10.870;2023-05-07T05:01:16;9.55;;;8.60;;
70705;SDS011;59320;52.316;10.870;2023-05-07T05:03:43;11.85;;;9.23;;
70705;SDS011;59320;52.316;10.870;2023-05-07T05:06:11;12.10;;;9.27;;
70705;SDS011;59320;52.316;10.870;2023-05-07T05:08:38;11.18;;;8.65;;
70705;SDS011;59320;52.316;10.870;2023-05-07T05:11:05;11.15;;;8.82;;
70705;SDS011;59320;52.316;10.870;2023-05-07T05:13:35;8.75;;;7.85;;
70705;SDS011;59320;52.316;10.870;2023-05-07T05:16:09;10.38;;;8.40;;
70705;SDS011;59320;52.316;10.870;2023-05-07T05:18:38;11.38;;;8.07;;
70705;SDS011;59320;52.316;10.870;2023-05-07T05:21:07;10.52;;;8.15;;
70705;SDS011;59320;52.316;10.870;2023-05-07T05:23:34;8.95;;;8.00;;
70705;SDS011;59320;52.316;10.870;2023-05-07T05:26:02;8.93;;;8.02;;
70705;SDS011;59320;52.316;10.870;2023-05-07T05:28:32;10.77;;;8.60;;
70705;SDS011;59320;52.316;10.870;2023-05-07T05:30:59;10.15;;;8.63;;
70705;SDS011;59320;52.316;10.870;2023-05-07T05:33:30;11.38;;;9.23;;
70705;SDS011;59320;52.316;10.870;2023-05-07T05:36:03;11.95;;;9.38;;
70705;SDS011;59320;52.316;10.870;2023-05-07T05:38:31;10.52;;;8.68;;
70705;SDS011;59320;52.316;10.870;2023-05-07T05:40:59;9.35;;;8.35;;
70705;SDS011;59320;52.316;10.870;2023-05-07T05:43:27;10.43;;;8.15;;
70705;SDS011;59320;52.316;10.870;2023-05-07T05:45:55;9.23;;;8.25;;
70705;SDS011;59320;52.316;10.870;2023-05-07T05:48:22;9.70;;;8.70;;
70705;SDS011;59320;52.316;10.870;2023-05-07T05:50:50;9.68;;;8.38;;
70705;SDS011;59320;52.316;10.870;2023-05-07T05:53:19;10.02;;;8.32;;
70705;SDS011;59320;52.316;10.870;2023-05-07T05:55:46;9.52;;;8.40;;
70705;SDS011;59320;52.316;10.870;2023-05-07T05:58:13;10.30;;;8.75;;
70705;SDS011;59320;52.316;10.870;2023-05-07T06:00:46;9.80;;;8.80;;
70705;SDS011;59320;52.316;10.870;2023-05-07T06:03:14;12.63;;;9.13;;
70705;SDS011;59320;52.316;10.870;2023-05-07T06:05:41;10.18;;;8.77;;
70705;SDS011;59320;52.316;10.870;2023-05-07T06:08:09;11.15;;;8.65;;
70705;SDS011;59320;52.316;10.870;2023-05-07T06:10:37;9.75;;;8.57;;
70705;SDS011;59320;52.316;10.870;2023-05-07T06:13:07;12.00;;;9.60;;
70705;SDS011;59320;52.316;10.870;2023-05-07T06:15:36;13.30;;;10.98;;
70705;SDS011;59320;52.316;10.870;2023-05-07T06:18:08;12.82;;;10.43;;
70705;SDS011;59320;52.316;10.870;2023-05-07T06:20:35;12.85;;;10.45;;
70705;SDS011;59320;52.316;10.870;2023-05-07T06:23:05;11.80;;;9.77;;
70705;SDS011;59320;52.316;10.870;2023-05-07T06:25:33;11.07;;;9.25;;
70705;SDS011;59320;52.316;10.870;2023-05-07T06:28:02;11.85;;;9.60;;
70705;SDS011;59320;52.316;10.870;2023-05-07T06:30:30;11.38;;;10.10;;
70705;SDS011;59320;52.316;10.870;2023-05-07T06:32:58;10.77;;;9.45;;
70705;SDS011;59320;52.316;10.870;2023-05-07T06:35:25;11.52;;;9.95;;
70705;SDS011;59320;52.316;10.870;2023-05-07T06:37:53;12.98;;;9.88;;
70705;SDS011;59320;52.316;10.870;2023-05-07T06:40:26;12.15;;;9.68;;
70705;SDS011;59320;52.316;10.870;2023-05-07T06:42:55;11.75;;;9.15;;
70705;SDS011;59320;52.316;10.870;2023-05-07T06:45:41;10.77;;;8.48;;
70705;SDS011;59320;52.316;10.870;2023-05-07T06:48:10;10.80;;;9.15;;
70705;SDS011;59320;52.316;10.870;2023-05-07T06:50:47;12.10;;;8.38;;
70705;SDS011;59320;52.316;10.870;2023-05-07T06:53:14;11.75;;;8.27;;
70705;SDS011;59320;52.316;10.870;2023-05-07T06:55:41;11.70;;;8.70;;
70705;SDS011;59320;52.316;10.870;2023-05-07T06:58:10;9.68;;;8.43;;
70705;SDS011;59320;52.316;10.870;2023-05-07T07:00:37;11.27;;;8.98;;
70705;SDS011;59320;52.316;10.870;2023-05-07T07:03:07;11.32;;;9.30;;
70705;SDS011;59320;52.316;10.870;2023-05-07T07:05:34;12.30;;;9.25;;
70705;SDS011;59320;52.316;10.870;2023-05-07T07:08:02;10.15;;;8.50;;
70705;SDS011;59320;52.316;10.870;2023-05-07T07:10:31;8.55;;;7.65;;
70705;SDS011;59320;52.316;10.870;2023-05-07T07:12:59;9.18;;;7.10;;
70705;SDS011;59320;52.316;10.870;2023-05-07T07:15:26;10.43;;;6.72;;
70705;SDS011;59320;52.316;10.870;2023-05-07T07:17:54;9.55;;;6.60;;
70705;SDS011;59320;52.316;10.870;2023-05-07T07:20:27;6.57;;;5.70;;
70705;SDS011;59320;52.316;10.870;2023-05-07T07:22:54;7.03;;;6.20;;
70705;SDS011;59320;52.316;10.870;2023-05-07T07:25:21;7.88;;;6.40;;
70705;SDS011;59320;52.316;10.870;2023-05-07T07:27:50;8.23;;;6.40;;
70705;SDS011;59320;52.316;10.870;2023-05-07T07:30:18;6.47;;;5.80;;
70705;SDS011;59320;52.316;10.870;2023-05-07T07:32:47;6.18;;;5.55;;
70705;SDS011;59320;52.316;10.870;2023-05-07T07:35:16;15.60;;;10.52;;
70705;SDS011;59320;52.316;10.870;2023-05-07T07:37:45;8.77;;;7.40;;
70705;SDS011;59320;52.316;10.870;2023-05-07T07:40:15;7.60;;;6.78;;
70705;SDS011;59320;52.316;10.870;2023-05-07T07:42:44;8.02;;;7.13;;
70705;SDS011;59320;52.316;10.870;2023-05-07T07:45:11;7.88;;;6.70;;
70705;SDS011;59320;52.316;10.870;2023-05-07T07:47:43;9.48;;;7.18;;
70705;SDS011;59320;52.316;10.870;2023-05-07T07:50:10;7.82;;;5.90;;
70705;SDS011;59320;52.316;10.870;2023-05-07T07:52:37;6.65;;;5.80;;
70705;SDS011;59320;52.316;10.870;2023-05-07T07:55:08;7.20;;;6.28;;
70705;SDS011;59320;52.316;10.870;2023-05-07T07:57:36;12.85;;;9.23;;
70705;SDS011;59320;52.316;10.870;2023-05-07T08:00:04;8.38;;;7.50;;
70705;SDS011;59320;52.316;10.870;2023-05-07T08:02:42;7.78;;;6.88;;
70705;SDS011;59320;52.316;10.870;2023-05-07T08:05:12;7.00;;;6.30;;
70705;SDS011;59320;52.316;10.870;2023-05-07T08:07:41;7.43;;;6.68;;
70705;SDS011;59320;52.316;10.870;2023-05-07T08:10:12;6.53;;;5.90;;
70705;SDS011;59320;52.316;10.870;2023-05-07T08:12:46;8.10;;;5.85;;
70705;SDS011;59320;52.316;10.870;2023-05-07T08:15:14;7.03;;;6.18;;
70705;SDS011;59320;52.316;10.870;2023-05-07T08:17:41;9.15;;;6.10;;
70705;SDS011;59320;52.316;10.870;2023-05-07T08:20:09;6.70;;;5.75;;
70705;SDS011;59320;52.316;10.870;2023-05-07T08:22:37;6.63;;;5.93;;
70705;SDS011;59320;52.316;10.870;2023-05-07T08:25:06;6.28;;;5.68;;
70705;SDS011;59320;52.316;10.870;2023-05-07T08:27:35;6.50;;;5.78;;
70705;SDS011;59320;52.316;10.870;2023-05-07T08:30:03;6.45;;;5.68;;
70705;SDS011;59320;52.316;10.870;2023-05-07T08:32:31;6.13;;;5.53;;
70705;SDS011;59320;52.316;10.870;2023-05-07T08:34:58;6.32;;;5.72;;
70705;SDS011;59320;52.316;10.870;2023-05-07T08:37:26;7.53;;;6.25;;
70705;SDS011;59320;52.316;10.870;2023-05-07T08:39:54;6.78;;;6.07;;
70705;SDS011;59320;52.316;10.870;2023-05-07T08:42:24;6.22;;;5.63;;
70705;SDS011;59320;52.316;10.870;2023-05-07T08:44:52;7.22;;;6.53;;
70705;SDS011;59320;52.316;10.870;2023-05-07T08:47:25;6.00;;;5.40;;
70705;SDS011;59320;52.316;10.870;2023-05-07T08:50:01;7.57;;;5.88;;
70705;SDS011;59320;52.316;10.870;2023-05-07T08:52:29;5.85;;;5.28;;
70705;SDS011;59320;52.316;10.870;2023-05-07T08:54:56;7.97;;;6.03;;
70705;SDS011;59320;52.316;10.870;2023-05-07T08:57:24;9.20;;;7.65;;
70705;SDS011;59320;52.316;10.870;2023-05-07T08:59:54;8.50;;;7.40;;
70705;SDS011;59320;52.316;10.870;2023-05-07T09:02:21;8.68;;;7.78;;
70705;SDS011;59320;52.316;10.870;2023-05-07T09:04:48;7.80;;;6.68;;
70705;SDS011;59320;52.316;10.870;2023-05-07T09:07:16;8.48;;;7.55;;
70705;SDS011;59320;52.316;10.870;2023-05-07T09:09:43;7.97;;;7.18;;
70705;SDS011;59320;52.316;10.870;2023-05-07T09:12:12;15.85;;;7.93;;
70705;SDS011;59320;52.316;10.870;2023-05-07T09:14:40;9.68;;;8.55;;
70705;SDS011;59320;52.316;10.870;2023-05-07T09:17:08;8.23;;;7.18;;
70705;SDS011;59320;52.316;10.870;2023-05-07T09:19:35;8.45;;;7.53;;
70705;SDS011;59320;52.316;10.870;2023-05-07T09:22:06;8.18;;;7.13;;
70705;SDS011;59320;52.316;10.870;2023-05-07T09:24:52;8.65;;;7.75;;
70705;SDS011;59320;52.316;10.870;2023-05-07T09:27:22;9.13;;;8.20;;
70705;SDS011;59320;52.316;10.870;2023-05-07T09:29:50;8.27;;;7.47;;
70705;SDS011;59320;52.316;10.870;2023-05-07T09:32:19;8.50;;;7.60;;
70705;SDS011;59320;52.316;10.870;2023-05-07T09:34:46;8.63;;;7.35;;
70705;SDS011;59320;52.316;10.870;2023-05-07T09:37:16;8.23;;;7.45;;
70705;SDS011;59320;52.316;10.870;2023-05-07T09:39:44;8.43;;;7.50;;
70705;SDS011;59320;52.316;10.870;2023-05-07T09:42:16;8.75;;;7.50;;
70705;SDS011;59320;52.316;10.870;2023-05-07T09:44:49;7.13;;;6.43;;
70705;SDS011;59320;52.316;10.870;2023-05-07T09:47:23;7.22;;;6.53;;
70705;SDS011;59320;52.316;10.870;2023-05-07T09:49:55;7.00;;;6.30;;
70705;SDS011;59320;52.316;10.870;2023-05-07T09:52:24;7.43;;;6.53;;
70705;SDS011;59320;52.316;10.870;2023-05-07T09:54:54;7.18;;;6.50;;
70705;SDS011;59320;52.316;10.870;2023-05-07T09:57:26;6.90;;;6.20;;
70705;SDS011;59320;52.316;10.870;2023-05-07T09:59:59;8.23;;;6.63;;
70705;SDS011;59320;52.316;10.870;2023-05-07T10:05:01;7.20;;;6.35;;
70705;SDS011;59320;52.316;10.870;2023-05-07T10:07:32;7.40;;;6.32;;
70705;SDS011;59320;52.316;10.870;2023-05-07T10:10:05;7.18;;;6.00;;
70705;SDS011;59320;52.316;10.870;2023-05-07T10:12:37;6.38;;;5.78;;
70705;SDS011;59320;52.316;10.870;2023-05-07T10:15:11;6.68;;;5.65;;
70705;SDS011;59320;52.316;10.870;2023-05-07T10:17:43;8.85;;;6.00;;
70705;SDS011;59320;52.316;10.870;2023-05-07T10:20:12;8.68;;;6.47;;
70705;SDS011;59320;52.316;10.870;2023-05-07T10:22:45;8.95;;;6.30;;
70705;SDS011;59320;52.316;10.870;2023-05-07T10:25:21;5.90;;;5.30;;
70705;SDS011;59320;52.316;10.870;2023-05-07T10:27:52;6.38;;;5.78;;
70705;SDS011;59320;52.316;10.870;2023-05-07T10:30:24;6.60;;;5.53;;
70705;SDS011;59320;52.316;10.870;2023-05-07T10:33:03;5.88;;;5.28;;
70705;SDS011;59320;52.316;10.870;2023-05-07T10:35:36;7.10;;;5.85;;
70705;SDS011;59320;52.316;10.870;2023-05-07T10:38:08;7.10;;;5.88;;
70705;SDS011;59320;52.316;10.870;2023-05-07T10:40:38;7.32;;;6.28;;
70705;SDS011;59320;52.316;10.870;2023-05-07T10:43:07;7.38;;;6.00;;
70705;SDS011;59320;52.316;10.870;2023-05-07T10:45:40;6.85;;;6.13;;
70705;SDS011;59320;52.316;10.870;2023-05-07T10:48:11;15.75;;;7.07;;
70705;SDS011;59320;52.316;10.870;2023-05-07T10:50:40;8.82;;;6.70;;
70705;SDS011;59320;52.316;10.870;2023-05-07T10:53:22;8.15;;;7.35;;
70705;SDS011;59320;52.316;10.870;2023-05-07T11:02:16;8.95;;;6.47;;
70705;SDS011;59320;52.316;10.870;2023-05-07T11:05:19;8.00;;;7.20;;
70705;SDS011;59320;52.316;10.870;2023-05-07T11:07:54;9.73;;;7.20;;
70705;SDS011;59320;52.316;10.870;2023-05-07T11:10:29;8.10;;;7.00;;
70705;SDS011;59320;52.316;10.870;2023-05-07T11:16:18;7.82;;;6.78;;
70705;SDS011;59320;52.316;10.870;2023-05-07T11:18:50;8.88;;;7.03;;
70705;SDS011;59320;52.316;10.870;2023-05-07T11:21:32;9.60;;;6.97;;
70705;SDS011;59320;52.316;10.870;2023-05-07T11:24:19;8.55;;;6.90;;
70705;SDS011;59320;52.316;10.870;2023-05-07T11:26:59;7.20;;;6.50;;
70705;SDS011;59320;52.316;10.870;2023-05-07T11:29:28;9.77;;;6.88;;
70705;SDS011;59320;52.316;10.870;2023-05-07T11:32:03;8.13;;;6.57;;
70705;SDS011;59320;52.316;10.870;2023-05-07T11:34:37;7.78;;;6.32;;
70705;SDS011;59320;52.316;10.870;2023-05-07T11:37:06;7.18;;;6.13;;
70705;SDS011;59320;52.316;10.870;2023-05-07T11:40:06;8.63;;;6.40;;
70705;SDS011;59320;52.316;10.870;2023-05-07T11:42:36;6.95;;;6.25;;
70705;SDS011;59320;52.316;10.870;2023-05-07T11:45:06;6.55;;;5.65;;
70705;SDS011;59320;52.316;10.870;2023-05-07T11:47:34;8.82;;;6.70;;
70705;SDS011;59320;52.316;10.870;2023-05-07T11:50:02;7.72;;;6.22;;
70705;SDS011;59320;52.316;10.870;2023-05-07T11:52:33;7.68;;;5.32;;
70705;SDS011;59320;52.316;10.870;2023-05-07T11:55:01;5.53;;;4.95;;
70705;SDS011;59320;52.316;10.870;2023-05-07T11:57:30;7.30;;;5.22;;
70705;SDS011;59320;52.316;10.870;2023-05-07T11:59:59;5.72;;;5.22;;
70705;SDS011;59320;52.316;10.870;2023-05-07T12:02:38;6.72;;;4.90;;
70705;SDS011;59320;52.316;10.870;2023-05-07T12:05:05;6.03;;;5.18;;
70705;SDS011;59320;52.316;10.870;2023-05-07T12:07:34;6.13;;;4.95;;
70705;SDS011;59320;52.316;10.870;2023-05-07T12:10:04;5.53;;;5.03;;
70705;SDS011;59320;52.316;10.870;2023-05-07T12:12:31;5.93;;;5.03;;
70705;SDS011;59320;52.316;10.870;2023-05-07T12:15:05;8.02;;;5.25;;
70705;SDS011;59320;52.316;10.870;2023-05-07T12:17:32;6.05;;;5.05;;
70705;SDS011;59320;52.316;10.870;2023-05-07T12:20:00;5.82;;;5.18;;
70705;SDS011;59320;52.316;10.870;2023-05-07T12:22:28;6.13;;;4.68;;
70705;SDS011;59320;52.316;10.870;2023-05-07T12:24:57;6.47;;;5.00;;
70705;SDS011;59320;52.316;10.870;2023-05-07T12:27:25;6.82;;;4.95;;
70705;SDS011;59320;52.316;10.870;2023-05-07T12:29:52;7.68;;;5.40;;
70705;SDS011;59320;52.316;10.870;2023-05-07T12:32:20;6.97;;;5.57;;
70705;SDS011;59320;52.316;10.870;2023-05-07T12:34:49;6.28;;;5.05;;
70705;SDS011;59320;52.316;10.870;2023-05-07T12:37:22;5.25;;;4.75;;
70705;SDS011;59320;52.316;10.870;2023-05-07T12:40:02;5.55;;;4.53;;
70705;SDS011;59320;52.316;10.870;2023-05-07T12:42:32;5.25;;;4.75;;
70705;SDS011;59320;52.316;10.870;2023-05-07T12:45:07;5.18;;;4.68;;
70705;SDS011;59320;52.316;10.870;2023-05-07T12:47:35;5.93;;;4.82;;
70705;SDS011;59320;52.316;10.870;2023-05-07T12:50:04;6.55;;;5.03;;
70705;SDS011;59320;52.316;10.870;2023-05-07T12:52:32;5.82;;;5.22;;
70705;SDS011;59320;52.316;10.870;2023-05-07T12:55:05;5.85;;;5.20;;
70705;SDS011;59320;52.316;10.870;2023-05-07T12:57:37;5.60;;;4.75;;
70705;SDS011;59320;52.316;10.870;2023-05-07T13:00:05;8.45;;;6.40;;
70705;SDS011;59320;52.316;10.870;2023-05-07T13:02:32;5.57;;;4.97;;
70705;SDS011;59320;52.316;10.870;2023-05-07T13:05:01;5.57;;;4.93;;
70705;SDS011;59320;52.316;10.870;2023-05-07T13:07:28;4.70;;;4.20;;
70705;SDS011;59320;52.316;10.870;2023-05-07T13:09:55;5.47;;;4.65;;
70705;SDS011;59320;52.316;10.870;2023-05-07T13:12:23;5.93;;;5.10;;
70705;SDS011;59320;52.316;10.870;2023-05-07T13:14:50;6.57;;;4.90;;
70705;SDS011;59320;52.316;10.870;2023-05-07T13:17:17;5.22;;;4.72;;
70705;SDS011;59320;52.316;10.870;2023-05-07T13:19:44;6.82;;;5.80;;
70705;SDS011;59320;52.316;10.870;2023-05-07T13:22:11;7.45;;;5.30;;
70705;SDS011;59320;52.316;10.870;2023-05-07T13:24:39;6.80;;;5.57;;
70705;SDS011;59320;52.316;10.870;2023-05-07T13:27:07;6.72;;;4.97;;
70705;SDS011;59320;52.316;10.870;2023-05-07T13:29:35;8.48;;;7.68;;
70705;SDS011;59320;52.316;10.870;2023-05-07T13:32:02;6.45;;;5.78;;
70705;SDS011;59320;52.316;10.870;2023-05-07T13:34:29;5.43;;;4.90;;
70705;SDS011;59320;52.316;10.870;2023-05-07T13:36:57;6.53;;;5.18;;
70705;SDS011;59320;52.316;10.870;2023-05-07T13:39:24;7.32;;;5.15;;
70705;SDS011;59320;52.316;10.870;2023-05-07T13:41:51;5.32;;;4.82;;
70705;SDS011;59320;52.316;10.870;2023-05-07T13:44:18;5.53;;;5.00;;
70705;SDS011;59320;52.316;10.870;2023-05-07T13:46:47;10.35;;;5.15;;
70705;SDS011;59320;52.316;10.870;2023-05-07T13:49:15;7.10;;;4.95;;
70705;SDS011;59320;52.316;10.870;2023-05-07T13:51:42;5.47;;;4.65;;
70705;SDS011;59320;52.316;10.870;2023-05-07T13:54:09;5.00;;;4.20;;
70705;SDS011;59320;52.316;10.870;2023-05-07T13:56:37;5.10;;;4.60;;
70705;SDS011;59320;52.316;10.870;2023-05-07T13:59:04;8.57;;;5.32;;
70705;SDS011;59320;52.316;10.870;2023-05-07T14:01:31;8.57;;;5.07;;
70705;SDS011;59320;52.316;10.870;2023-05-07T14:03:59;5.63;;;4.18;;
70705;SDS011;59320;52.316;10.870;2023-05-07T14:06:26;12.07;;;9.57;;
70705;SDS011;59320;52.316;10.870;2023-05-07T14:08:53;8.00;;;6.82;;
70705;SDS011;59320;52.316;10.870;2023-05-07T14:11:23;15.30;;;9.52;;
70705;SDS011;59320;52.316;10.870;2023-05-07T14:13:50;16.65;;;11.10;;
70705;SDS011;59320;52.316;10.870;2023-05-07T14:16:17;27.13;;;16.77;;
70705;SDS011;59320;52.316;10.870;2023-05-07T14:18:44;11.18;;;8.20;;
70705;SDS011;59320;52.316;10.870;2023-05-07T14:21:12;5.22;;;4.72;;
70705;SDS011;59320;52.316;10.870;2023-05-07T14:23:39;4.80;;;4.30;;
70705;SDS011;59320;52.316;10.870;2023-05-07T14:26:06;4.80;;;4.07;;
70705;SDS011;59320;52.316;10.870;2023-05-07T14:28:33;5.65;;;4.65;;
70705;SDS011;59320;52.316;10.870;2023-05-07T14:31:01;5.00;;;4.25;;
70705;SDS011;59320;52.316;10.870;2023-05-07T14:33:28;6.22;;;4.50;;
70705;SDS011;59320;52.316;10.870;2023-05-07T14:35:55;4.78;;;4.25;;
70705;SDS011;59320;52.316;10.870;2023-05-07T14:38:23;4.28;;;3.90;;
70705;SDS011;59320;52.316;10.870;2023-05-07T14:40:50;5.82;;;4.43;;
70705;SDS011;59320;52.316;10.870;2023-05-07T14:43:18;4.68;;;4.18;;
70705;SDS011;59320;52.316;10.870;2023-05-07T14:45:46;5.20;;;4.20;;
70705;SDS011;59320;52.316;10.870;2023-05-07T14:48:14;4.25;;;3.85;;
70705;SDS011;59320;52.316;10.870;2023-05-07T14:50:41;5.07;;;4.57;;
70705;SDS011;59320;52.316;10.870;2023-05-07T14:53:08;4.70;;;4.22;;